sensor_id;sensor_type;location;lat;lon;timestamp;temperature;humidity
2999;DHT22;1509;51.964;7.628;2022-12-07T00:01:18;5.20;99.90
2999;DHT22;1509;51.964;7.628;2022-12-07T00:03:46;5.20;99.90
2999;DHT22;1509;51.964;7.628;2022-12-07T00:06:13;5.20;99.90
2999;DHT22;1509;51.964;7.628;2022-12-07T00:08:39;5.20;99.90
2999;DHT22;1509;51.964;7.628;2022-12-07T00:11:08;5.20;99.90
2999;DHT22;1509;51.964;7.628;2022-12-07T00:13:34;5.20;99.90
2999;DHT22;1509;51.964;7.628;2022-12-07T00:16:08;5.20;99.90
2999;DHT22;1509;51.964;7.628;2022-12-07T00:18:34;5.20;99.90
2999;DHT22;1509;51.964;7.628;2022-12-07T00:21:02;5.20;99.90
2999;DHT22;1509;51.964;7.628;2022-12-07T00:23:28;5.20;99.90
2999;DHT22;1509;51.964;7.628;2022-12-07T00:25:53;5.20;99.90
2999;DHT22;1509;51.964;7.628;2022-12-07T00:28:19;5.10;99.90
2999;DHT22;1509;51.964;7.628;2022-12-07T00:30:45;5.10;99.90
2999;DHT22;1509;51.964;7.628;2022-12-07T00:33:10;5.10;99.90
2999;DHT22;1509;51.964;7.628;2022-12-07T00:35:36;5.10;99.90
2999;DHT22;1509;51.964;7.628;2022-12-07T00:38:01;5.10;99.90
2999;DHT22;1509;51.964;7.628;2022-12-07T00:40:27;5.00;99.90
2999;DHT22;1509;51.964;7.628;2022-12-07T00:42:52;5.00;99.90
2999;DHT22;1509;51.964;7.628;2022-12-07T00:45:18;5.00;99.90
2999;DHT22;1509;51.964;7.628;2022-12-07T00:47:44;5.00;99.90
2999;DHT22;1509;51.964;7.628;2022-12-07T00:50:09;4.90;99.90
2999;DHT22;1509;51.964;7.628;2022-12-07T00:52:35;4.90;99.90
2999;DHT22;1509;51.964;7.628;2022-12-07T00:55:00;4.90;99.90
2999;DHT22;1509;51.964;7.628;2022-12-07T00:57:26;4.90;99.90
2999;DHT22;1509;51.964;7.628;2022-12-07T00:59:51;4.90;99.90
2999;DHT22;1509;51.964;7.628;2022-12-07T01:02:21;4.90;99.90
2999;DHT22;1509;51.964;7.628;2022-12-07T01:04:46;4.80;99.90
2999;DHT22;1509;51.964;7.628;2022-12-07T01:07:12;4.80;99.90
2999;DHT22;1509;51.964;7.628;2022-12-07T01:09:37;4.80;99.90
2999;DHT22;1509;51.964;7.628;2022-12-07T01:12:06;4.80;99.90
2999;DHT22;1509;51.964;7.628;2022-12-07T01:14:32;4.80;99.90
2999;DHT22;1509;51.964;7.628;2022-12-07T01:16:57;4.80;99.90
2999;DHT22;1509;51.964;7.628;2022-12-07T01:19:23;4.80;99.90
2999;DHT22;1509;51.964;7.628;2022-12-07T01:21:48;4.70;99.90
2999;DHT22;1509;51.964;7.628;2022-12-07T01:24:14;4.70;99.90
2999;DHT22;1509;51.964;7.628;2022-12-07T01:26:39;4.70;99.90
2999;DHT22;1509;51.964;7.628;2022-12-07T01:29:05;4.70;99.90
2999;DHT22;1509;51.964;7.628;2022-12-07T01:31:31;4.60;99.90
2999;DHT22;1509;51.964;7.628;2022-12-07T01:33:58;4.60;99.90
2999;DHT22;1509;51.964;7.628;2022-12-07T01:36:30;4.60;99.90
2999;DHT22;1509;51.964;7.628;2022-12-07T01:38:58;4.50;99.90
2999;DHT22;1509;51.964;7.628;2022-12-07T01:41:27;4.50;99.90
2999;DHT22;1509;51.964;7.628;2022-12-07T01:44:13;4.50;99.90
2999;DHT22;1509;51.964;7.628;2022-12-07T01:46:41;4.50;99.90
2999;DHT22;1509;51.964;7.628;2022-12-07T01:49:10;4.50;99.90
2999;DHT22;1509;51.964;7.628;2022-12-07T01:51:37;4.40;99.90
2999;DHT22;1509;51.964;7.628;2022-12-07T01:54:04;4.40;99.90
2999;DHT22;1509;51.964;7.628;2022-12-07T01:56:30;4.30;99.90
2999;DHT22;1509;51.964;7.628;2022-12-07T01:58:58;4.30;99.90
2999;DHT22;1509;51.964;7.628;2022-12-07T02:01:25;4.30;99.90
2999;DHT22;1509;51.964;7.628;2022-12-07T02:03:51;4.20;99.90
2999;DHT22;1509;51.964;7.628;2022-12-07T02:06:20;4.20;99.90
2999;DHT22;1509;51.964;7.628;2022-12-07T02:08:47;4.20;99.90
2999;DHT22;1509;51.964;7.628;2022-12-07T02:11:13;4.20;99.90
2999;DHT22;1509;51.964;7.628;2022-12-07T02:13:41;4.10;99.90
2999;DHT22;1509;51.964;7.628;2022-12-07T02:21:45;4.00;99.90
2999;DHT22;1509;51.964;7.628;2022-12-07T02:30:35;3.90;99.90
2999;DHT22;1509;51.964;7.628;2022-12-07T02:35:39;3.90;99.90
2999;DHT22;1509;51.964;7.628;2022-12-07T02:38:24;3.90;99.90
2999;DHT22;1509;51.964;7.628;2022-12-07T02:41:04;3.80;99.90
2999;DHT22;1509;51.964;7.628;2022-12-07T02:46:06;3.70;99.90
2999;DHT22;1509;51.964;7.628;2022-12-07T02:48:34;3.80;99.90
2999;DHT22;1509;51.964;7.628;2022-12-07T02:51:02;3.70;99.90
2999;DHT22;1509;51.964;7.628;2022-12-07T02:53:36;3.70;99.90
2999;DHT22;1509;51.964;7.628;2022-12-07T02:59:17;3.70;99.90
2999;DHT22;1509;51.964;7.628;2022-12-07T03:07:03;3.60;99.90
2999;DHT22;1509;51.964;7.628;2022-12-07T03:09:44;3.60;99.90
2999;DHT22;1509;51.964;7.628;2022-12-07T03:12:22;3.60;99.90
2999;DHT22;1509;51.964;7.628;2022-12-07T03:17:57;3.50;99.90
2999;DHT22;1509;51.964;7.628;2022-12-07T03:20:24;3.50;99.90
2999;DHT22;1509;51.964;7.628;2022-12-07T03:22:52;3.50;99.90
2999;DHT22;1509;51.964;7.628;2022-12-07T03:25:19;3.50;99.90
2999;DHT22;1509;51.964;7.628;2022-12-07T03:27:53;3.50;99.90
2999;DHT22;1509;51.964;7.628;2022-12-07T03:30:24;3.50;99.90
2999;DHT22;1509;51.964;7.628;2022-12-07T03:36:05;3.50;99.90
2999;DHT22;1509;51.964;7.628;2022-12-07T03:38:44;3.50;99.90
2999;DHT22;1509;51.964;7.628;2022-12-07T03:41:24;3.50;99.90
2999;DHT22;1509;51.964;7.628;2022-12-07T03:43:50;3.40;99.90
2999;DHT22;1509;51.964;7.628;2022-12-07T03:54:34;3.40;99.90
2999;DHT22;1509;51.964;7.628;2022-12-07T03:57:02;3.40;99.90
2999;DHT22;1509;51.964;7.628;2022-12-07T03:59:30;3.40;99.90
2999;DHT22;1509;51.964;7.628;2022-12-07T04:02:01;3.50;99.90
2999;DHT22;1509;51.964;7.628;2022-12-07T04:04:28;3.50;99.90
2999;DHT22;1509;51.964;7.628;2022-12-07T04:06:53;3.60;99.90
2999;DHT22;1509;51.964;7.628;2022-12-07T04:09:19;3.70;99.90
2999;DHT22;1509;51.964;7.628;2022-12-07T04:11:45;3.70;99.90
2999;DHT22;1509;51.964;7.628;2022-12-07T04:14:11;3.70;99.90
2999;DHT22;1509;51.964;7.628;2022-12-07T04:16:51;3.70;99.90
2999;DHT22;1509;51.964;7.628;2022-12-07T04:19:19;3.70;99.90
2999;DHT22;1509;51.964;7.628;2022-12-07T04:21:45;3.70;99.90
2999;DHT22;1509;51.964;7.628;2022-12-07T04:24:13;3.70;99.90
2999;DHT22;1509;51.964;7.628;2022-12-07T04:26:39;3.70;99.90
2999;DHT22;1509;51.964;7.628;2022-12-07T04:29:05;3.70;99.90
2999;DHT22;1509;51.964;7.628;2022-12-07T04:31:30;3.70;99.90
2999;DHT22;1509;51.964;7.628;2022-12-07T04:33:56;3.60;99.90
2999;DHT22;1509;51.964;7.628;2022-12-07T04:36:21;3.60;99.90
2999;DHT22;1509;51.964;7.628;2022-12-07T04:38:47;3.50;99.90
2999;DHT22;1509;51.964;7.628;2022-12-07T04:41:13;3.60;99.90
2999;DHT22;1509;51.964;7.628;2022-12-07T04:43:38;3.60;99.90
2999;DHT22;1509;51.964;7.628;2022-12-07T04:46:04;3.60;99.90
2999;DHT22;1509;51.964;7.628;2022-12-07T04:48:30;3.50;99.90
2999;DHT22;1509;51.964;7.628;2022-12-07T04:50:56;3.60;99.90
2999;DHT22;1509;51.964;7.628;2022-12-07T04:53:21;3.60;99.90
2999;DHT22;1509;51.964;7.628;2022-12-07T04:55:47;3.60;99.90
2999;DHT22;1509;51.964;7.628;2022-12-07T04:58:13;3.50;99.90
2999;DHT22;1509;51.964;7.628;2022-12-07T05:00:39;3.50;99.90
2999;DHT22;1509;51.964;7.628;2022-12-07T05:03:05;3.50;99.90
2999;DHT22;1509;51.964;7.628;2022-12-07T05:05:31;3.50;99.90
2999;DHT22;1509;51.964;7.628;2022-12-07T05:07:57;3.50;99.90
2999;DHT22;1509;51.964;7.628;2022-12-07T05:10:22;3.50;99.90
2999;DHT22;1509;51.964;7.628;2022-12-07T05:12:48;3.50;99.90
2999;DHT22;1509;51.964;7.628;2022-12-07T05:15:15;3.50;99.90
2999;DHT22;1509;51.964;7.628;2022-12-07T05:17:41;3.50;99.90
2999;DHT22;1509;51.964;7.628;2022-12-07T05:20:07;3.50;99.90
2999;DHT22;1509;51.964;7.628;2022-12-07T05:22:33;3.50;99.90
2999;DHT22;1509;51.964;7.628;2022-12-07T05:24:59;3.50;99.90
2999;DHT22;1509;51.964;7.628;2022-12-07T05:27:24;3.50;99.90
2999;DHT22;1509;51.964;7.628;2022-12-07T05:29:50;3.50;99.90
2999;DHT22;1509;51.964;7.628;2022-12-07T05:32:17;3.50;99.90
2999;DHT22;1509;51.964;7.628;2022-12-07T05:34:42;3.50;99.90
2999;DHT22;1509;51.964;7.628;2022-12-07T05:37:08;3.60;99.90
2999;DHT22;1509;51.964;7.628;2022-12-07T05:39:33;3.60;99.90
2999;DHT22;1509;51.964;7.628;2022-12-07T05:41:59;3.60;99.90
2999;DHT22;1509;51.964;7.628;2022-12-07T05:44:44;3.60;99.90
2999;DHT22;1509;51.964;7.628;2022-12-07T05:47:11;3.60;99.90
2999;DHT22;1509;51.964;7.628;2022-12-07T05:49:37;3.60;99.90
2999;DHT22;1509;51.964;7.628;2022-12-07T05:52:05;3.60;99.90
2999;DHT22;1509;51.964;7.628;2022-12-07T05:54:31;3.50;99.90
2999;DHT22;1509;51.964;7.628;2022-12-07T05:56:56;3.50;99.90
2999;DHT22;1509;51.964;7.628;2022-12-07T05:59:23;3.50;99.90
2999;DHT22;1509;51.964;7.628;2022-12-07T06:04:22;3.50;99.90
2999;DHT22;1509;51.964;7.628;2022-12-07T06:06:49;3.50;99.90
2999;DHT22;1509;51.964;7.628;2022-12-07T06:09:15;3.60;99.90
2999;DHT22;1509;51.964;7.628;2022-12-07T06:11:41;3.60;99.90
2999;DHT22;1509;51.964;7.628;2022-12-07T06:14:25;3.60;99.90
2999;DHT22;1509;51.964;7.628;2022-12-07T06:16:51;3.60;99.90
2999;DHT22;1509;51.964;7.628;2022-12-07T06:19:17;3.60;99.90
2999;DHT22;1509;51.964;7.628;2022-12-07T06:21:43;3.60;99.90
2999;DHT22;1509;51.964;7.628;2022-12-07T06:24:10;3.60;99.90
2999;DHT22;1509;51.964;7.628;2022-12-07T06:26:36;3.60;99.90
2999;DHT22;1509;51.964;7.628;2022-12-07T06:29:02;3.60;99.90
2999;DHT22;1509;51.964;7.628;2022-12-07T06:31:27;3.60;99.90
2999;DHT22;1509;51.964;7.628;2022-12-07T06:34:05;3.60;99.90
2999;DHT22;1509;51.964;7.628;2022-12-07T06:36:31;3.50;99.90
2999;DHT22;1509;51.964;7.628;2022-12-07T06:38:56;3.50;99.90
2999;DHT22;1509;51.964;7.628;2022-12-07T06:41:22;3.40;99.90
2999;DHT22;1509;51.964;7.628;2022-12-07T06:43:48;3.40;99.90
2999;DHT22;1509;51.964;7.628;2022-12-07T06:46:15;3.40;99.90
2999;DHT22;1509;51.964;7.628;2022-12-07T06:48:41;3.30;99.90
2999;DHT22;1509;51.964;7.628;2022-12-07T06:51:07;3.30;99.90
2999;DHT22;1509;51.964;7.628;2022-12-07T06:53:33;3.30;99.90
2999;DHT22;1509;51.964;7.628;2022-12-07T06:55:58;3.30;99.90
2999;DHT22;1509;51.964;7.628;2022-12-07T06:58:24;3.30;99.90
2999;DHT22;1509;51.964;7.628;2022-12-07T07:00:50;3.20;99.90
2999;DHT22;1509;51.964;7.628;2022-12-07T07:03:16;3.20;99.90
2999;DHT22;1509;51.964;7.628;2022-12-07T07:05:42;3.20;99.90
2999;DHT22;1509;51.964;7.628;2022-12-07T07:08:08;3.20;99.90
2999;DHT22;1509;51.964;7.628;2022-12-07T07:10:34;3.20;99.90
2999;DHT22;1509;51.964;7.628;2022-12-07T07:13:00;3.20;99.90
2999;DHT22;1509;51.964;7.628;2022-12-07T07:15:26;3.20;99.90
2999;DHT22;1509;51.964;7.628;2022-12-07T07:17:51;3.20;99.90
2999;DHT22;1509;51.964;7.628;2022-12-07T07:20:17;3.20;99.90
2999;DHT22;1509;51.964;7.628;2022-12-07T07:22:43;3.20;99.90
2999;DHT22;1509;51.964;7.628;2022-12-07T07:25:08;3.20;99.90
2999;DHT22;1509;51.964;7.628;2022-12-07T07:27:34;3.20;99.90
2999;DHT22;1509;51.964;7.628;2022-12-07T07:29:59;3.30;99.90
2999;DHT22;1509;51.964;7.628;2022-12-07T07:32:25;3.30;99.90
2999;DHT22;1509;51.964;7.628;2022-12-07T07:34:51;3.40;99.90
2999;DHT22;1509;51.964;7.628;2022-12-07T07:37:16;3.40;99.90
2999;DHT22;1509;51.964;7.628;2022-12-07T07:39:42;3.40;99.90
2999;DHT22;1509;51.964;7.628;2022-12-07T07:42:07;3.50;99.90
2999;DHT22;1509;51.964;7.628;2022-12-07T07:44:34;3.50;99.90
2999;DHT22;1509;51.964;7.628;2022-12-07T07:47:00;3.50;99.90
2999;DHT22;1509;51.964;7.628;2022-12-07T07:49:26;3.50;99.90
2999;DHT22;1509;51.964;7.628;2022-12-07T07:51:52;3.50;99.90
2999;DHT22;1509;51.964;7.628;2022-12-07T07:54:17;3.50;99.90
2999;DHT22;1509;51.964;7.628;2022-12-07T07:56:43;3.60;99.90
2999;DHT22;1509;51.964;7.628;2022-12-07T07:59:08;3.60;99.90
2999;DHT22;1509;51.964;7.628;2022-12-07T08:01:34;3.50;99.90
2999;DHT22;1509;51.964;7.628;2022-12-07T08:04:00;3.50;99.90
2999;DHT22;1509;51.964;7.628;2022-12-07T08:06:26;3.50;99.90
2999;DHT22;1509;51.964;7.628;2022-12-07T08:08:52;3.40;99.90
2999;DHT22;1509;51.964;7.628;2022-12-07T08:11:18;3.40;99.90
2999;DHT22;1509;51.964;7.628;2022-12-07T08:13:46;3.40;99.90
2999;DHT22;1509;51.964;7.628;2022-12-07T08:16:14;3.30;99.90
2999;DHT22;1509;51.964;7.628;2022-12-07T08:18:41;3.30;99.90
2999;DHT22;1509;51.964;7.628;2022-12-07T08:21:11;3.30;99.90
2999;DHT22;1509;51.964;7.628;2022-12-07T08:23:37;3.20;99.90
2999;DHT22;1509;51.964;7.628;2022-12-07T08:26:05;3.20;99.90
2999;DHT22;1509;51.964;7.628;2022-12-07T08:28:31;3.30;99.90
2999;DHT22;1509;51.964;7.628;2022-12-07T08:31:19;3.20;99.90
2999;DHT22;1509;51.964;7.628;2022-12-07T08:33:46;3.30;99.90
2999;DHT22;1509;51.964;7.628;2022-12-07T08:36:12;3.30;99.90
2999;DHT22;1509;51.964;7.628;2022-12-07T08:38:40;3.30;99.90
2999;DHT22;1509;51.964;7.628;2022-12-07T08:41:07;3.30;99.90
2999;DHT22;1509;51.964;7.628;2022-12-07T08:43:33;3.30;99.90
2999;DHT22;1509;51.964;7.628;2022-12-07T08:48:37;3.30;99.90
2999;DHT22;1509;51.964;7.628;2022-12-07T08:51:05;3.50;99.90
2999;DHT22;1509;51.964;7.628;2022-12-07T08:53:31;3.60;99.90
2999;DHT22;1509;51.964;7.628;2022-12-07T08:55:58;3.80;99.90
2999;DHT22;1509;51.964;7.628;2022-12-07T08:58:24;3.90;99.90
2999;DHT22;1509;51.964;7.628;2022-12-07T09:00:50;3.90;99.90
2999;DHT22;1509;51.964;7.628;2022-12-07T09:03:16;4.00;99.90
2999;DHT22;1509;51.964;7.628;2022-12-07T09:05:41;4.10;99.90
2999;DHT22;1509;51.964;7.628;2022-12-07T09:08:08;4.10;99.90
2999;DHT22;1509;51.964;7.628;2022-12-07T09:10:33;4.10;99.90
2999;DHT22;1509;51.964;7.628;2022-12-07T09:12:59;4.20;99.90
2999;DHT22;1509;51.964;7.628;2022-12-07T09:15:28;4.20;99.90
2999;DHT22;1509;51.964;7.628;2022-12-07T09:17:54;4.20;99.90
2999;DHT22;1509;51.964;7.628;2022-12-07T09:20:23;4.20;99.90
2999;DHT22;1509;51.964;7.628;2022-12-07T09:22:48;4.30;99.90
2999;DHT22;1509;51.964;7.628;2022-12-07T09:25:14;4.30;99.90
2999;DHT22;1509;51.964;7.628;2022-12-07T09:27:40;4.40;99.90
2999;DHT22;1509;51.964;7.628;2022-12-07T09:30:06;4.60;99.90
2999;DHT22;1509;51.964;7.628;2022-12-07T09:32:32;4.70;99.90
2999;DHT22;1509;51.964;7.628;2022-12-07T09:34:58;4.90;99.90
2999;DHT22;1509;51.964;7.628;2022-12-07T09:37:24;4.90;99.90
2999;DHT22;1509;51.964;7.628;2022-12-07T09:39:49;5.00;99.90
2999;DHT22;1509;51.964;7.628;2022-12-07T09:42:44;5.00;99.90
2999;DHT22;1509;51.964;7.628;2022-12-07T09:45:15;5.00;99.90
2999;DHT22;1509;51.964;7.628;2022-12-07T09:47:42;5.00;99.90
2999;DHT22;1509;51.964;7.628;2022-12-07T09:50:14;5.00;99.90
2999;DHT22;1509;51.964;7.628;2022-12-07T09:52:41;5.00;99.90
2999;DHT22;1509;51.964;7.628;2022-12-07T09:55:16;5.10;99.90
2999;DHT22;1509;51.964;7.628;2022-12-07T09:57:45;5.00;99.90
2999;DHT22;1509;51.964;7.628;2022-12-07T10:00:16;5.10;99.90
2999;DHT22;1509;51.964;7.628;2022-12-07T10:02:59;5.10;99.90
2999;DHT22;1509;51.964;7.628;2022-12-07T10:05:35;5.20;99.90
2999;DHT22;1509;51.964;7.628;2022-12-07T10:08:03;5.40;99.90
2999;DHT22;1509;51.964;7.628;2022-12-07T10:10:34;5.60;99.90
2999;DHT22;1509;51.964;7.628;2022-12-07T10:15:45;5.80;99.90
2999;DHT22;1509;51.964;7.628;2022-12-07T10:18:24;5.60;99.90
2999;DHT22;1509;51.964;7.628;2022-12-07T10:23:36;5.50;99.90
2999;DHT22;1509;51.964;7.628;2022-12-07T10:26:30;5.50;99.90
2999;DHT22;1509;51.964;7.628;2022-12-07T10:29:36;5.70;99.90
2999;DHT22;1509;51.964;7.628;2022-12-07T10:32:32;5.80;99.90
2999;DHT22;1509;51.964;7.628;2022-12-07T10:35:22;5.90;99.90
2999;DHT22;1509;51.964;7.628;2022-12-07T10:37:50;6.00;99.90
2999;DHT22;1509;51.964;7.628;2022-12-07T10:40:46;6.20;99.90
2999;DHT22;1509;51.964;7.628;2022-12-07T10:46:09;6.10;99.90
2999;DHT22;1509;51.964;7.628;2022-12-07T10:51:55;5.70;99.90
2999;DHT22;1509;51.964;7.628;2022-12-07T10:54:29;5.70;99.90
2999;DHT22;1509;51.964;7.628;2022-12-07T10:58:05;5.70;99.90
2999;DHT22;1509;51.964;7.628;2022-12-07T11:00:04;5.60;99.90
2999;DHT22;1509;51.964;7.628;2022-12-07T11:05:26;5.70;99.90
2999;DHT22;1509;51.964;7.628;2022-12-07T11:08:17;5.70;99.90
2999;DHT22;1509;51.964;7.628;2022-12-07T11:11:05;5.70;99.90
2999;DHT22;1509;51.964;7.628;2022-12-07T11:16:55;5.90;99.90
2999;DHT22;1509;51.964;7.628;2022-12-07T11:19:55;6.10;99.90
2999;DHT22;1509;51.964;7.628;2022-12-07T11:22:46;6.20;99.90
2999;DHT22;1509;51.964;7.628;2022-12-07T11:28:53;6.40;99.90
2999;DHT22;1509;51.964;7.628;2022-12-07T11:38:52;6.50;99.90
2999;DHT22;1509;51.964;7.628;2022-12-07T11:41:39;6.50;99.90
2999;DHT22;1509;51.964;7.628;2022-12-07T11:44:27;6.50;99.90
2999;DHT22;1509;51.964;7.628;2022-12-07T11:50:05;6.40;99.90
2999;DHT22;1509;51.964;7.628;2022-12-07T11:53:03;6.60;99.90
2999;DHT22;1509;51.964;7.628;2022-12-07T11:55:52;7.10;99.90
2999;DHT22;1509;51.964;7.628;2022-12-07T12:00:48;8.60;99.90
2999;DHT22;1509;51.964;7.628;2022-12-07T12:03:26;8.60;99.90
2999;DHT22;1509;51.964;7.628;2022-12-07T12:05:56;8.80;99.90
2999;DHT22;1509;51.964;7.628;2022-12-07T12:08:29;8.90;99.90
2999;DHT22;1509;51.964;7.628;2022-12-07T12:11:03;8.90;99.90
2999;DHT22;1509;51.964;7.628;2022-12-07T12:19:38;8.90;99.90
2999;DHT22;1509;51.964;7.628;2022-12-07T12:22:20;9.50;99.90
2999;DHT22;1509;51.964;7.628;2022-12-07T12:24:51;9.80;99.90
2999;DHT22;1509;51.964;7.628;2022-12-07T12:27:27;9.60;99.90
2999;DHT22;1509;51.964;7.628;2022-12-07T12:29:58;9.40;99.90
2999;DHT22;1509;51.964;7.628;2022-12-07T12:32:41;9.30;99.90
2999;DHT22;1509;51.964;7.628;2022-12-07T12:38:31;9.40;99.90
2999;DHT22;1509;51.964;7.628;2022-12-07T12:41:00;8.90;99.90
2999;DHT22;1509;51.964;7.628;2022-12-07T12:43:47;8.40;99.90
2999;DHT22;1509;51.964;7.628;2022-12-07T12:51:49;7.50;99.90
2999;DHT22;1509;51.964;7.628;2022-12-07T12:56:50;7.10;99.90
2999;DHT22;1509;51.964;7.628;2022-12-07T13:02:16;6.70;99.90
2999;DHT22;1509;51.964;7.628;2022-12-07T13:05:16;6.60;99.90
2999;DHT22;1509;51.964;7.628;2022-12-07T13:15:45;6.40;99.90
2999;DHT22;1509;51.964;7.628;2022-12-07T13:28:43;6.60;99.90
2999;DHT22;1509;51.964;7.628;2022-12-07T13:33:38;6.50;99.90
2999;DHT22;1509;51.964;7.628;2022-12-07T13:36:18;6.40;99.90
2999;DHT22;1509;51.964;7.628;2022-12-07T13:38:56;6.30;99.90
2999;DHT22;1509;51.964;7.628;2022-12-07T13:41:27;6.30;99.90
2999;DHT22;1509;51.964;7.628;2022-12-07T13:44:14;6.30;99.90
2999;DHT22;1509;51.964;7.628;2022-12-07T13:51:46;6.40;99.90
2999;DHT22;1509;51.964;7.628;2022-12-07T13:54:13;6.40;99.90
2999;DHT22;1509;51.964;7.628;2022-12-07T13:56:40;6.40;99.90
2999;DHT22;1509;51.964;7.628;2022-12-07T13:59:23;6.30;99.90
2999;DHT22;1509;51.964;7.628;2022-12-07T14:01:51;6.30;99.90
2999;DHT22;1509;51.964;7.628;2022-12-07T14:04:32;6.30;99.90
2999;DHT22;1509;51.964;7.628;2022-12-07T14:06:58;6.30;99.90
2999;DHT22;1509;51.964;7.628;2022-12-07T14:09:26;6.20;99.90
2999;DHT22;1509;51.964;7.628;2022-12-07T14:11:53;6.20;99.90
2999;DHT22;1509;51.964;7.628;2022-12-07T14:14:29;6.20;99.90
2999;DHT22;1509;51.964;7.628;2022-12-07T14:17:12;6.20;99.90
2999;DHT22;1509;51.964;7.628;2022-12-07T14:22:55;6.10;99.90
2999;DHT22;1509;51.964;7.628;2022-12-07T14:25:23;6.10;99.90
2999;DHT22;1509;51.964;7.628;2022-12-07T14:27:50;6.00;99.90
2999;DHT22;1509;51.964;7.628;2022-12-07T14:30:18;6.00;99.90
2999;DHT22;1509;51.964;7.628;2022-12-07T14:32:44;6.00;99.90
2999;DHT22;1509;51.964;7.628;2022-12-07T14:35:15;6.00;99.90
2999;DHT22;1509;51.964;7.628;2022-12-07T14:37:43;6.00;99.90
2999;DHT22;1509;51.964;7.628;2022-12-07T14:40:14;5.90;99.90
2999;DHT22;1509;51.964;7.628;2022-12-07T14:42:40;5.90;99.90
2999;DHT22;1509;51.964;7.628;2022-12-07T14:45:17;5.90;99.90
2999;DHT22;1509;51.964;7.628;2022-12-07T14:47:44;5.80;99.90
2999;DHT22;1509;51.964;7.628;2022-12-07T14:50:15;5.80;99.90
2999;DHT22;1509;51.964;7.628;2022-12-07T14:52:45;5.70;99.90
2999;DHT22;1509;51.964;7.628;2022-12-07T14:55:20;5.60;99.90
2999;DHT22;1509;51.964;7.628;2022-12-07T14:57:48;5.60;99.90
2999;DHT22;1509;51.964;7.628;2022-12-07T15:00:15;5.60;99.90
2999;DHT22;1509;51.964;7.628;2022-12-07T15:02:41;5.60;99.90
2999;DHT22;1509;51.964;7.628;2022-12-07T15:05:07;5.50;99.90
2999;DHT22;1509;51.964;7.628;2022-12-07T15:07:32;5.50;99.90
2999;DHT22;1509;51.964;7.628;2022-12-07T15:09:58;5.50;99.90
2999;DHT22;1509;51.964;7.628;2022-12-07T15:12:24;5.40;99.90
2999;DHT22;1509;51.964;7.628;2022-12-07T15:14:50;5.40;99.90
2999;DHT22;1509;51.964;7.628;2022-12-07T15:17:15;5.40;99.90
2999;DHT22;1509;51.964;7.628;2022-12-07T15:19:41;5.40;99.90
2999;DHT22;1509;51.964;7.628;2022-12-07T15:22:08;5.40;99.90
2999;DHT22;1509;51.964;7.628;2022-12-07T15:24:36;5.40;99.90
2999;DHT22;1509;51.964;7.628;2022-12-07T15:27:02;5.40;99.90
2999;DHT22;1509;51.964;7.628;2022-12-07T15:29:28;5.40;99.90
2999;DHT22;1509;51.964;7.628;2022-12-07T15:31:53;5.30;99.90
2999;DHT22;1509;51.964;7.628;2022-12-07T15:34:19;5.40;99.90
2999;DHT22;1509;51.964;7.628;2022-12-07T15:36:45;5.30;99.90
2999;DHT22;1509;51.964;7.628;2022-12-07T15:39:11;5.30;99.90
2999;DHT22;1509;51.964;7.628;2022-12-07T15:41:37;5.40;99.90
2999;DHT22;1509;51.964;7.628;2022-12-07T15:44:02;5.30;99.90
2999;DHT22;1509;51.964;7.628;2022-12-07T15:46:46;5.40;99.90
2999;DHT22;1509;51.964;7.628;2022-12-07T15:49:17;5.30;99.90
2999;DHT22;1509;51.964;7.628;2022-12-07T15:51:44;5.30;99.90
2999;DHT22;1509;51.964;7.628;2022-12-07T15:54:22;5.30;99.90
2999;DHT22;1509;51.964;7.628;2022-12-07T15:56:48;5.30;99.90
2999;DHT22;1509;51.964;7.628;2022-12-07T15:59:17;5.30;99.90
2999;DHT22;1509;51.964;7.628;2022-12-07T16:01:43;5.30;99.90
2999;DHT22;1509;51.964;7.628;2022-12-07T16:04:09;5.30;99.90
2999;DHT22;1509;51.964;7.628;2022-12-07T16:06:35;5.30;99.90
2999;DHT22;1509;51.964;7.628;2022-12-07T16:09:00;5.30;99.90
2999;DHT22;1509;51.964;7.628;2022-12-07T16:11:26;5.30;99.90
2999;DHT22;1509;51.964;7.628;2022-12-07T16:13:52;5.30;99.90
2999;DHT22;1509;51.964;7.628;2022-12-07T16:16:18;5.30;99.90
2999;DHT22;1509;51.964;7.628;2022-12-07T16:18:45;5.30;99.90
2999;DHT22;1509;51.964;7.628;2022-12-07T16:21:12;5.20;99.90
2999;DHT22;1509;51.964;7.628;2022-12-07T16:23:38;5.20;99.90
2999;DHT22;1509;51.964;7.628;2022-12-07T16:26:15;5.10;99.90
2999;DHT22;1509;51.964;7.628;2022-12-07T16:28:41;5.10;99.90
2999;DHT22;1509;51.964;7.628;2022-12-07T16:31:15;5.10;99.90
2999;DHT22;1509;51.964;7.628;2022-12-07T16:33:43;5.00;99.90
2999;DHT22;1509;51.964;7.628;2022-12-07T16:36:10;5.00;99.90
2999;DHT22;1509;51.964;7.628;2022-12-07T16:38:37;5.00;99.90
2999;DHT22;1509;51.964;7.628;2022-12-07T16:41:07;5.00;99.90
2999;DHT22;1509;51.964;7.628;2022-12-07T16:43:33;5.00;99.90
2999;DHT22;1509;51.964;7.628;2022-12-07T16:45:59;5.00;99.90
2999;DHT22;1509;51.964;7.628;2022-12-07T16:48:25;4.90;99.90
2999;DHT22;1509;51.964;7.628;2022-12-07T16:50:50;4.90;99.90
2999;DHT22;1509;51.964;7.628;2022-12-07T16:53:19;4.80;99.90
2999;DHT22;1509;51.964;7.628;2022-12-07T16:55:48;4.80;99.90
2999;DHT22;1509;51.964;7.628;2022-12-07T16:58:15;4.80;99.90
2999;DHT22;1509;51.964;7.628;2022-12-07T17:00:42;4.80;99.90
2999;DHT22;1509;51.964;7.628;2022-12-07T17:03:08;4.80;99.90
2999;DHT22;1509;51.964;7.628;2022-12-07T17:05:36;4.80;99.90
2999;DHT22;1509;51.964;7.628;2022-12-07T17:08:02;4.80;99.90
2999;DHT22;1509;51.964;7.628;2022-12-07T17:10:28;4.80;99.90
2999;DHT22;1509;51.964;7.628;2022-12-07T17:12:54;4.80;99.90
2999;DHT22;1509;51.964;7.628;2022-12-07T17:15:19;4.80;99.90
2999;DHT22;1509;51.964;7.628;2022-12-07T17:17:53;4.80;99.90
2999;DHT22;1509;51.964;7.628;2022-12-07T17:20:20;4.80;99.90
2999;DHT22;1509;51.964;7.628;2022-12-07T17:22:47;4.80;99.90
2999;DHT22;1509;51.964;7.628;2022-12-07T17:25:13;4.80;99.90
2999;DHT22;1509;51.964;7.628;2022-12-07T17:27:38;4.80;99.90
2999;DHT22;1509;51.964;7.628;2022-12-07T17:30:05;4.80;99.90
2999;DHT22;1509;51.964;7.628;2022-12-07T17:32:31;4.80;99.90
2999;DHT22;1509;51.964;7.628;2022-12-07T17:34:57;4.80;99.90
2999;DHT22;1509;51.964;7.628;2022-12-07T17:37:26;4.80;99.90
2999;DHT22;1509;51.964;7.628;2022-12-07T17:39:52;4.80;99.90
2999;DHT22;1509;51.964;7.628;2022-12-07T17:42:21;4.80;99.90
2999;DHT22;1509;51.964;7.628;2022-12-07T17:45:03;4.80;99.90
2999;DHT22;1509;51.964;7.628;2022-12-07T17:47:30;4.80;99.90
2999;DHT22;1509;51.964;7.628;2022-12-07T17:49:55;4.70;99.90
2999;DHT22;1509;51.964;7.628;2022-12-07T17:52:21;4.80;99.90
2999;DHT22;1509;51.964;7.628;2022-12-07T17:55:07;4.80;99.90
2999;DHT22;1509;51.964;7.628;2022-12-07T17:57:33;4.80;99.90
2999;DHT22;1509;51.964;7.628;2022-12-07T17:59:59;4.70;99.90
2999;DHT22;1509;51.964;7.628;2022-12-07T18:02:24;4.80;99.90
2999;DHT22;1509;51.964;7.628;2022-12-07T18:04:50;4.80;99.90
2999;DHT22;1509;51.964;7.628;2022-12-07T18:07:17;4.80;99.90
2999;DHT22;1509;51.964;7.628;2022-12-07T18:09:42;4.70;99.90
2999;DHT22;1509;51.964;7.628;2022-12-07T18:12:08;4.70;99.90
2999;DHT22;1509;51.964;7.628;2022-12-07T18:14:34;4.70;99.90
2999;DHT22;1509;51.964;7.628;2022-12-07T18:17:00;4.70;99.90
2999;DHT22;1509;51.964;7.628;2022-12-07T18:19:25;4.70;99.90
2999;DHT22;1509;51.964;7.628;2022-12-07T18:21:51;4.70;99.90
2999;DHT22;1509;51.964;7.628;2022-12-07T18:24:17;4.70;99.90
2999;DHT22;1509;51.964;7.628;2022-12-07T18:26:43;4.60;99.90
2999;DHT22;1509;51.964;7.628;2022-12-07T18:29:13;4.60;99.90
2999;DHT22;1509;51.964;7.628;2022-12-07T18:31:42;4.60;99.90
2999;DHT22;1509;51.964;7.628;2022-12-07T18:34:11;4.60;99.90
2999;DHT22;1509;51.964;7.628;2022-12-07T18:36:38;4.60;99.90
2999;DHT22;1509;51.964;7.628;2022-12-07T18:39:04;4.50;99.90